Latest Weather Observations for Lucinda

IDQ60801

Issued at 2:32 pm EST Thursday 14 December 2017 (issued every 30 minutes, with the page automatically refreshed every 10 minutes)

About weather observations | Map of weather stations | Latest weather observations for QLD | Other Formats
Station Details ID: 032141 Name: LUCINDA POINT Lat: -18.52 Lon: 146.39 Height: 10.0 m
Data from the previous 72 hours. | See also: Recent months at Lucinda
Date/Time
EST
Temp
°C
App
Temp
°C
Dew
Point
°C
Rel
Hum
%
Delta-T
°C
Wind Press
QNH
hPa
Press
MSL
hPa
Rain since
9am
mm
Dir  Spd
km/h
Gust
km/h
Spd
kts
Gust
kts
14/02:30pm 27.5 27.8 21.5 70 4.0 ENE 22 30 12 16 1007.7 1007.6 0.0
14/02:00pm 27.6 27.6 20.2 64 4.9 ENE 20 28 11 15 1008.1 1008.0 0.0
14/01:30pm 28.2 29.3 21.2 65 4.7 E 17 24 9 13 1008.5 1008.4 0.0
14/01:00pm 28.1 28.9 20.6 63 5.0 E 17 22 9 12 1008.8 1008.7 0.0
14/12:30pm 27.9 29.3 21.0 66 4.6 SE 15 19 8 10 1009.3 1009.2 0.0
14/12:00pm 27.5 28.5 21.1 68 4.2 SSE 17 20 9 11 1009.7 1009.6 0.0
14/11:30am 27.3 28.3 21.1 69 4.1 SSE 17 22 9 12 1010.0 1009.9 0.0
14/11:00am 27.4 28.5 21.2 69 4.1 S 17 20 9 11 1010.4 1010.3 0.0
14/10:30am 27.1 28.8 21.6 72 3.7 SSW 15 20 8 11 1010.6 1010.5 0.0
14/10:00am 26.6 27.8 21.4 73 3.5 SSW 17 20 9 11 1010.8 1010.7 0.0
14/09:30am 26.6 28.4 21.8 75 3.2 SSW 15 19 8 10 1011.1 1011.0 0.0
14/09:00am 26.0 27.0 21.7 77 2.9 SW 19 20 10 11 1011.3 1011.2 0.2
14/08:30am 26.3 28.2 20.6 71 3.7 SSW 11 15 6 8 1011.3 1011.2 0.2
14/08:00am 26.5 28.8 21.3 73 3.5 W 11 15 6 8 1011.3 1011.2 0.2
14/07:30am 25.7 27.9 21.1 76 3.0 W 11 13 6 7 1011.1 1011.0 0.2
14/07:00am 25.1 26.5 21.0 78 2.7 WSW 15 20 8 11 1011.0 1010.9 0.2
14/06:30am 25.7 28.5 21.6 78 2.7 SSW 9 15 5 8 1010.8 1010.7 0.2
14/06:00am 26.5 28.3 19.6 66 4.5 SE 9 17 5 9 1010.5 1010.4 0.2
14/05:30am 26.5 28.5 20.8 71 3.8 SSE 11 15 6 8 1010.2 1010.1 0.2
14/05:00am 26.5 28.3 20.3 68 4.1 SE 11 19 6 10 1010.0 1009.9 0.2
14/04:30am 26.5 28.7 20.3 68 4.1 S 9 15 5 8 1009.7 1009.6 0.2
14/04:00am 26.5 27.9 20.3 68 4.1 SE 13 24 7 13 1009.4 1009.3 0.2
14/03:30am 26.5 27.8 20.1 68 4.2 SSE 13 20 7 11 1009.4 1009.3 0.2
14/03:00am 26.6 28.3 20.9 71 3.8 SE 13 20 7 11 1009.4 1009.3 0.2
14/02:30am 26.4 27.6 20.0 68 4.2 SE 13 20 7 11 1009.4 1009.3 0.2
14/02:00am 26.5 27.5 20.3 68 4.1 SE 15 22 8 12 1009.5 1009.4 0.2
14/01:30am 26.5 27.8 20.8 71 3.8 SE 15 24 8 13 1009.6 1009.5 0.2
14/01:00am 26.5 27.5 20.3 68 4.1 ESE 15 22 8 12 1010.1 1010.0 0.2
14/12:30am 26.7 28.0 20.8 70 3.9 SE 15 24 8 13 1010.6 1010.5 0.2
14/12:00am 26.7 27.3 20.3 68 4.2 ESE 17 24 9 13 1011.1 1011.0 0.2
 
Date/Time
EST
Temp
°C
App
Temp
°C
Dew
Point
°C
Rel
Hum
%
Delta-T
°C
Wind Press
QNH
hPa
Press
MSL
hPa
Rain since
9am
mm
Dir  Spd
km/h
Gust
km/h
Spd
kts
Gust
kts
13/11:30pm 26.9 27.2 20.3 67 4.3 ESE 19 26 10 14 1011.3 1011.2 0.2
13/11:00pm 27.0 28.4 21.1 70 3.9 SE 15 24 8 13 1011.5 1011.4 0.2
13/10:30pm 26.9 27.8 20.0 66 4.5 ESE 15 24 8 13 1011.7 1011.6 0.2
13/10:00pm 27.0 26.9 19.6 64 4.8 ESE 19 26 10 14 1011.7 1011.6 0.2
13/09:30pm 26.9 26.9 19.8 65 4.6 ESE 19 26 10 14 1011.3 1011.2 0.2
13/09:00pm 26.9 27.9 21.0 70 3.9 E 17 24 9 13 1011.1 1011.0 0.2
13/08:30pm 26.9 27.3 21.0 70 3.9 ESE 20 28 11 15 1010.9 1010.8 0.2
13/08:00pm 27.1 27.6 20.9 69 4.1 E 19 26 10 14 1010.6 1010.5 0.2
13/07:30pm 27.0 27.1 20.3 66 4.4 ESE 20 28 11 15 1010.4 1010.3 0.2
13/07:00pm 27.2 27.9 21.2 69 4.0 E 19 26 10 14 1010.3 1010.2 0.2
13/06:30pm 27.3 26.8 19.9 64 4.8 E 22 28 12 15 1009.9 1009.8 0.2
13/06:00pm 27.4 26.7 20.2 65 4.7 ESE 24 30 13 16 1009.5 1009.4 0.2
13/05:30pm 27.5 26.8 19.6 62 5.1 E 22 30 12 16 1009.3 1009.2 0.2
13/05:00pm 27.6 26.7 19.1 59 5.5 E 22 30 12 16 1009.0 1008.9 0.2
13/04:30pm 27.9 27.7 19.7 61 5.3 ESE 20 30 11 16 1008.7 1008.6 0.2
13/04:00pm 28.3 28.0 19.5 59 5.7 ESE 20 32 11 17 1008.6 1008.5 0.2
13/03:30pm 27.8 27.4 20.1 63 5.0 ESE 22 32 12 17 1008.6 1008.5 0.2
13/03:00pm 27.6 26.5 19.4 61 5.3 ESE 24 32 13 17 1008.9 1008.8 0.2
13/02:30pm 28.1 27.8 19.6 60 5.5 ESE 20 33 11 18 1009.0 1008.9 0.2
13/02:00pm 28.5 29.4 20.0 60 5.6 SSE 15 24 8 13 1009.5 1009.4 0.2
13/01:30pm 28.1 28.6 20.1 62 5.2 ESE 17 28 9 15 1010.0 1009.9 0.2
13/01:00pm 28.1 28.6 20.1 62 5.2 SE 17 26 9 14 1010.4 1010.3 0.2
13/12:30pm 27.6 28.6 20.2 64 4.8 SSE 15 28 8 15 1010.7 1010.6 0.2
13/12:00pm 27.3 26.7 20.6 67 4.4 S 24 30 13 16 1011.0 1010.9 0.2
13/11:30am 27.0 26.2 20.1 66 4.5 S 24 32 13 17 1011.3 1011.2 0.2
13/11:00am 27.0 27.0 20.1 66 4.5 S 20 26 11 14 1011.6 1011.5 0.2
13/10:30am 27.1 27.1 20.2 66 4.5 S 20 32 11 17 1011.8 1011.7 0.2
13/10:00am 26.9 27.0 20.0 66 4.5 S 19 30 10 16 1012.0 1011.9 0.2
13/09:30am 26.6 25.7 20.7 70 3.9 S 26 32 14 17 1012.2 1012.1 0.0
13/09:00am 26.5 25.9 20.6 70 3.9 S 24 32 13 17 1012.2 1012.1 0.2
13/08:30am 26.5 26.0 20.8 71 3.8 S 24 32 13 17 1012.2 1012.1 0.2
13/08:00am 26.4 25.5 20.7 71 3.7 S 26 35 14 19 1011.9 1011.8 0.2
13/07:30am 26.5 26.6 19.9 67 4.3 S 19 28 10 15 1011.6 1011.5 0.2
13/07:00am 26.5 26.7 20.6 70 3.9 S 20 30 11 16 1011.3 1011.2 0.2
13/06:30am 26.3 28.2 21.3 74 3.3 SSW 13 20 7 11 1010.9 1010.8 0.2
13/06:00am 24.3 24.3 21.0 82 2.2 WSW 22 35 12 19 1010.5 1010.4 0.2
13/05:30am 23.8 23.7 21.5 87 1.5 WSW 24 28 13 15 1010.2 1010.1 0.2
13/05:00am 24.6 25.7 21.3 82 2.2 SW 17 26 9 14 1010.1 1010.0 0.2
13/04:30am 26.2 28.3 20.1 69 4.0 SSE 9 15 5 8 1009.9 1009.8 0.2
13/04:00am 25.9 27.1 19.8 69 4.0 SE 13 20 7 11 1009.7 1009.6 0.2
13/03:30am 24.7 21.0 16.9 62 4.8 ESE 32 44 17 24 1009.9 1009.8 0.2
13/03:19am 25.7 24.8 19.1 67 4.2 ESE 22 48 12 26 1009.7 1009.6 0.2
13/03:00am 26.7 27.2 20.1 67 4.3 SE 17 28 9 15 1009.7 1009.6 0.2
13/02:30am 26.8 27.0 20.2 67 4.3 SE 19 37 10 20 1009.8 1009.7 0.2
13/02:00am 25.6 25.2 19.3 68 4.1 E 20 30 11 16 1010.1 1010.0 0.2
13/01:52am 25.4 22.6 18.1 64 4.6 E 30 46 16 25 1010.2 1010.1 0.2
13/01:46am 25.5 24.0 17.7 62 4.9 SE 22 46 12 25 1010.1 1010.0 0.2
13/01:30am 26.8 28.0 19.9 66 4.5 SE 13 22 7 12 1010.4 1010.3 0.2
13/01:00am 26.7 28.0 20.1 67 4.3 SE 13 19 7 10 1010.8 1010.7 0.2
13/12:30am 26.9 26.9 19.8 65 4.6 ESE 19 28 10 15 1011.2 1011.1 0.2
13/12:00am 26.9 26.9 19.8 65 4.6 ESE 19 30 10 16 1011.4 1011.3 0.2
 
Date/Time
EST
Temp
°C
App
Temp
°C
Dew
Point
°C
Rel
Hum
%
Delta-T
°C
Wind Press
QNH
hPa
Press
MSL
hPa
Rain since
9am
mm
Dir  Spd
km/h
Gust
km/h
Spd
kts
Gust
kts
12/11:30pm 27.0 27.9 20.1 66 4.5 SE 15 26 8 14 1011.5 1011.4 0.2
12/11:00pm 26.9 27.9 20.3 67 4.3 SE 15 26 8 14 1011.7 1011.6 0.2
12/10:30pm 26.7 27.8 20.5 69 4.1 ESE 15 26 8 14 1011.7 1011.6 0.2
12/10:00pm 26.9 28.0 20.5 68 4.2 ESE 15 26 8 14 1011.9 1011.8 0.2
12/09:30pm 27.0 27.8 20.6 68 4.2 ESE 17 30 9 16 1011.8 1011.7 0.2
12/09:00pm 27.0 27.5 20.1 66 4.5 ESE 17 30 9 16 1011.8 1011.7 0.2
12/08:30pm 27.1 27.2 19.2 62 5.1 ESE 17 28 9 15 1011.4 1011.3 0.2
12/08:00pm 27.2 28.1 20.0 64 4.7 SE 15 24 8 13 1011.3 1011.2 0.2
12/07:30pm 27.0 27.8 19.9 65 4.6 SE 15 24 8 13 1011.2 1011.1 0.2
12/07:00pm 27.2 28.6 21.0 69 4.1 ESE 15 24 8 13 1011.0 1010.9 0.2
12/06:30pm 27.3 27.8 20.1 64 4.7 ESE 17 26 9 14 1010.5 1010.4 0.2
12/06:00pm 27.5 27.4 19.6 62 5.1 ESE 19 30 10 16 1010.3 1010.2 0.2
12/05:30pm 27.8 26.9 19.1 59 5.6 ESE 22 32 12 17 1010.3 1010.2 0.2
12/05:00pm 28.2 27.3 18.3 55 6.3 ESE 20 32 11 17 1010.1 1010.0 0.2
12/04:30pm 28.4 28.7 20.7 63 5.1 ESE 20 28 11 15 1010.1 1010.0 0.2
12/04:00pm 28.1 27.6 19.1 58 5.8 ESE 20 28 11 15 1010.3 1010.2 0.2
12/03:30pm 28.1 28.9 19.9 61 5.4 SE 15 22 8 12 1010.4 1010.3 0.2
12/03:00pm 28.5 29.4 19.2 57 6.0 SE 13 20 7 11 1010.5 1010.4 0.2
12/02:30pm 28.1 28.3 19.3 58 5.7 ESE 17 24 9 13 1010.8 1010.7 0.2
12/02:00pm 27.1 27.4 20.7 68 4.2 ESE 20 28 11 15 1011.0 1010.9 0.2
12/01:30pm 27.6 28.3 20.4 65 4.7 SSE 17 24 9 13 1011.4 1011.3 0.2
12/01:00pm 27.2 27.9 20.5 67 4.4 SSE 17 22 9 12 1011.7 1011.6 0.2
12/12:30pm 27.3 28.1 20.6 67 4.4 S 17 22 9 12 1012.1 1012.0 0.2
12/12:00pm 26.9 27.3 20.7 69 4.1 S 19 22 10 12 1012.6 1012.5 0.2
12/11:30am 27.0 27.2 20.6 68 4.2 S 20 26 11 14 1012.7 1012.6 0.2
12/11:00am 27.1 27.5 20.7 68 4.2 S 19 22 10 12 1013.2 1013.1 0.2
12/10:30am 27.0 27.1 21.1 70 3.9 S 22 28 12 15 1013.3 1013.2 0.0
12/10:00am 27.0 27.0 21.7 73 3.5 S 24 28 13 15 1013.2 1013.1 0.0
12/09:30am 26.7 26.3 21.0 71 3.8 S 24 30 13 16 1013.2 1013.1 0.0
12/09:00am 25.8 27.6 21.2 76 3.0 SSW 13 19 7 10 1012.9 1012.8 0.4
12/08:30am 25.8 27.3 21.2 76 3.0 SSW 15 20 8 11 1012.8 1012.7 0.4
12/08:00am 25.3 25.5 20.5 75 3.1 SW 20 24 11 13 1012.8 1012.7 0.4
12/07:30am 24.6 24.6 20.1 76 2.9 SW 20 24 11 13 1012.6 1012.5 0.4
12/07:00am 24.4 24.7 20.3 78 2.7 SW 19 22 10 12 1012.3 1012.2 0.4
12/06:30am 24.3 24.9 20.2 78 2.7 SW 17 20 9 11 1011.7 1011.6 0.4
12/06:00am 24.4 24.6 20.5 79 2.5 WSW 20 22 11 12 1011.6 1011.5 0.4
12/05:30am 24.2 24.5 19.7 76 2.9 WSW 17 20 9 11 1011.0 1010.9 0.4
12/05:00am 24.0 23.7 19.1 74 3.1 WSW 19 22 10 12 1010.7 1010.6 0.4
12/04:30am 24.2 23.7 19.1 73 3.3 WSW 20 24 11 13 1010.6 1010.5 0.4
12/04:00am 24.3 23.2 18.7 71 3.6 SW 22 24 12 13 1010.4 1010.3 0.4
12/03:30am 24.0 23.3 18.6 72 3.4 WSW 20 24 11 13 1010.6 1010.5 0.4
12/03:00am 23.8 23.3 19.1 75 3.0 WSW 20 24 11 13 1010.5 1010.4 0.4
12/02:30am 23.6 22.9 19.5 78 2.6 WSW 22 24 12 13 1010.7 1010.6 0.4
12/02:00am 23.0 21.7 19.0 78 2.5 WSW 24 26 13 14 1010.9 1010.8 0.4
12/01:30am 23.2 21.7 19.4 79 2.4 WSW 26 28 14 15 1011.1 1011.0 0.4
12/01:00am 23.3 21.9 19.7 80 2.3 SW 26 30 14 16 1011.5 1011.4 0.4
12/12:30am 23.2 22.3 19.8 81 2.2 SW 24 30 13 16 1011.9 1011.8 0.4
12/12:00am 23.1 21.5 19.3 79 2.4 SW 26 28 14 15 1012.2 1012.1 0.4
 
Date/Time
EST
Temp
°C
App
Temp
°C
Dew
Point
°C
Rel
Hum
%
Delta-T
°C
Wind Press
QNH
hPa
Press
MSL
hPa
Rain since
9am
mm
Dir  Spd
km/h
Gust
km/h
Spd
kts
Gust
kts
11/11:30pm 23.6 22.2 18.9 75 3.0 SW 24 28 13 15 1012.6 1012.5 0.4
11/11:14pm 24.2 23.1 17.7 67 4.1 S 20 39 11 21 1012.8 1012.7 0.4
11/11:00pm 25.9 26.3 18.1 62 4.9 S 13 17 7 9 1012.7 1012.6 0.4
11/10:30pm 25.2 25.3 16.6 59 5.3 WNW 11 20 6 11 1012.4 1012.3 0.4
11/10:00pm 25.0 24.4 18.4 66 4.2 NNW 19 24 10 13 1012.1 1012.0 0.4
11/09:30pm 24.3 21.2 17.5 66 4.2 NE 30 33 16 18 1012.7 1012.6 0.2
11/09:18pm 23.0 19.0 17.5 71 3.4 ESE 35 50 19 27 1013.3 1013.2 0.0
11/09:00pm 23.6 18.7 19.1 76 2.9 SE 43 76 23 41 1013.5 1013.4 0.0
11/08:55pm 23.8 19.2 18.9 74 3.1 SE 41 76 22 41 1013.3 1013.2 0.0
11/08:30pm 24.0 21.1 20.1 79 2.5 S 35 72 19 39 1013.5 1013.4 0.0
11/08:27pm 24.9 24.3 20.6 77 2.8 SSE 24 67 13 36 1013.4 1013.3 0.0
11/08:25pm 25.5 25.7 20.1 72 3.5 SSE 19 48 10 26 1013.4 1013.3 0.0
11/08:00pm 27.3 27.7 20.6 67 4.4 ESE 19 24 10 13 1012.3 1012.2 0.0
11/07:30pm 27.3 27.4 19.9 64 4.8 ESE 19 30 10 16 1011.9 1011.8 0.0
11/07:00pm 27.3 28.2 20.9 68 4.2 E 17 24 9 13 1011.5 1011.4 0.0
11/06:30pm 27.3 28.4 21.3 69 4.0 ENE 17 20 9 11 1011.0 1010.9 0.0
11/06:00pm 27.2 28.3 20.5 67 4.4 NE 15 19 8 10 1010.7 1010.6 0.0
11/05:30pm 27.4 28.1 21.2 69 4.1 NE 19 22 10 12 1010.4 1010.3 0.0
11/05:00pm 27.4 28.0 20.2 65 4.7 E 17 24 9 13 1010.1 1010.0 0.0
11/04:30pm 27.8 28.4 21.1 67 4.4 ESE 19 24 10 13 1010.0 1009.9 0.0
11/04:00pm 27.8 28.2 20.6 65 4.8 ESE 19 26 10 14 1010.1 1010.0 0.0
11/03:30pm 28.5 30.1 20.8 63 5.1 ESE 13 24 7 13 1010.0 1009.9 0.0
11/03:00pm 28.5 29.8 20.2 60 5.5 SE 13 22 7 12 1010.4 1010.3 0.0

Other Formats:

Comma delimited format used in spreadsheet applications
http://www.bom.gov.au/fwo/IDQ60801/IDQ60801.94295.axf

JavaScript Object Notation format (JSON) in row-major order
http://www.bom.gov.au/fwo/IDQ60801/IDQ60801.94295.json